Time;durP1;ratioP1;P1;durP2;ratioP2;P2;SDS_P1;SDS_P2;PMS_P1;PMS_P2;Temp;Humidity;BMP_temperature;BMP_pressure;BME280_temperature;BME280_humidity;BME280_pressure;Samples;Min_cycle;Max_cycle;Signal;HPM_P1;HPM_P2
2022/10/07 00:01:48;;;;;;;7.80;2.28;;;14.80;83.50;;;;;;5034425;28;20033;-70
2022/10/07 00:04:14;;;;;;;7.25;1.90;;;14.70;83.60;;;;;;5034031;28;20024;-70
2022/10/07 00:06:40;;;;;;;7.47;2.05;;;14.70;83.80;;;;;;5034604;28;20029;-71
2022/10/07 00:09:05;;;;;;;10.88;2.38;;;14.60;84.30;;;;;;5034315;28;20423;-71
2022/10/07 00:11:31;;;;;;;12.05;2.30;;;14.50;84.70;;;;;;5034309;28;20501;-70
2022/10/07 00:14:00;;;;;;;8.80;2.15;;;14.50;84.50;;;;;;5033897;28;20029;-71
2022/10/07 00:16:28;;;;;;;10.30;2.03;;;14.40;84.90;;;;;;5033942;28;20029;-70
2022/10/07 00:18:56;;;;;;;9.27;2.30;;;14.40;84.90;;;;;;5033631;28;20036;-70
2022/10/07 00:21:22;;;;;;;7.70;2.25;;;14.40;85.00;;;;;;5033768;28;20030;-70
2022/10/07 00:23:49;;;;;;;8.07;1.67;;;14.40;85.20;;;;;;5034214;28;20025;-71
2022/10/07 00:26:18;;;;;;;8.75;2.00;;;14.50;85.20;;;;;;5033025;28;20469;-71
2022/10/07 00:28:45;;;;;;;9.65;2.00;;;14.40;85.20;;;;;;5033555;28;20037;-71
2022/10/07 00:31:17;;;;;;;11.25;2.20;;;14.50;85.30;;;;;;5033877;28;20101;-70
2022/10/07 00:33:43;;;;;;;8.30;2.25;;;14.40;85.30;;;;;;5033414;28;20535;-70
2022/10/07 00:36:18;;;;;;;10.65;2.20;;;14.40;85.40;;;;;;5033194;28;20108;-71
2022/10/07 00:38:57;;;;;;;13.50;2.42;;;14.40;85.60;;;;;;5032643;28;20076;-70
2022/10/07 00:41:26;;;;;;;9.38;2.03;;;14.30;85.90;;;;;;5033614;28;20025;-71
2022/10/07 00:43:57;;;;;;;14.73;2.53;;;14.30;85.90;;;;;;5033516;28;20103;-70
2022/10/07 00:46:38;;;;;;;9.85;2.15;;;14.20;86.10;;;;;;5039707;28;20085;-69
2022/10/07 00:49:08;;;;;;;10.93;2.35;;;14.20;86.20;;;;;;5045668;28;20026;-70
2022/10/07 00:51:34;;;;;;;18.95;2.88;;;14.20;86.50;;;;;;5033802;28;20045;-70
2022/10/07 00:54:02;;;;;;;11.95;2.40;;;14.20;86.50;;;;;;5033165;28;20045;-70
2022/10/07 00:56:29;;;;;;;8.15;1.95;;;14.20;86.60;;;;;;5033305;28;20032;-70
2022/10/07 00:58:57;;;;;;;9.75;2.45;;;14.20;86.70;;;;;;5033192;28;20104;-70
2022/10/07 01:01:24;;;;;;;10.15;2.40;;;14.20;86.80;;;;;;5033111;28;20374;-70
2022/10/07 01:03:51;;;;;;;9.85;2.85;;;14.20;86.90;;;;;;5033449;28;20029;-70
2022/10/07 01:06:17;;;;;;;6.53;1.83;;;14.30;86.90;;;;;;5033354;28;20440;-70
2022/10/07 01:08:44;;;;;;;9.35;1.88;;;14.30;86.90;;;;;;5033248;28;20025;-70
2022/10/07 01:11:57;;;;;;;10.10;2.05;;;14.40;87.00;;;;;;5033256;28;20114;-70
2022/10/07 01:14:49;;;;;;;9.55;2.20;;;14.40;87.00;;;;;;5030912;28;20041;-70
2022/10/07 01:17:19;;;;;;;8.77;1.98;;;14.40;86.80;;;;;;5032691;28;20485;-70
2022/10/07 01:20:12;;;;;;;6.63;2.60;;;14.40;86.80;;;;;;5033292;28;20025;-70
2022/10/07 01:23:06;;;;;;;5.93;2.20;;;14.40;86.80;;;;;;5032889;28;20341;-70
2022/10/07 01:25:41;;;;;;;8.98;2.42;;;14.50;86.80;;;;;;5030364;28;20036;-70
2022/10/07 01:28:13;;;;;;;10.70;2.20;;;14.40;86.70;;;;;;5032721;28;20041;-70
2022/10/07 01:30:45;;;;;;;9.77;2.40;;;14.40;86.70;;;;;;5032983;28;20049;-71
2022/10/07 01:33:31;;;;;;;7.25;2.08;;;14.40;86.80;;;;;;5033218;28;20037;-70
2022/10/07 01:36:02;;;;;;;10.82;2.20;;;14.40;86.80;;;;;;5032819;28;20090;-71
2022/10/07 01:38:30;;;;;;;7.75;2.15;;;14.40;86.80;;;;;;5032805;28;20029;-70
2022/10/07 01:41:03;;;;;;;11.18;2.15;;;14.40;87.30;;;;;;5033164;28;20112;-70
2022/10/07 01:43:30;;;;;;;9.05;2.38;;;14.40;86.80;;;;;;5043476;28;20131;-68
2022/10/07 01:45:57;;;;;;;11.80;2.40;;;14.40;86.90;;;;;;5037974;28;20504;-70
2022/10/07 01:48:22;;;;;;;9.20;2.30;;;14.40;86.90;;;;;;5032791;28;20031;-70
2022/10/07 01:50:50;;;;;;;8.65;2.13;;;14.40;86.90;;;;;;5035326;28;20385;-70
2022/10/07 01:53:38;;;;;;;10.00;2.13;;;14.40;87.50;;;;;;5035142;28;20412;-71
2022/10/07 01:56:22;;;;;;;9.13;2.15;;;14.40;86.90;;;;;;5036655;28;20128;-70
2022/10/07 01:58:56;;;;;;;8.02;2.90;;;14.40;86.80;;;;;;5036295;28;20029;-70
2022/10/07 02:01:42;;;;;;;8.38;2.90;;;14.40;86.60;;;;;;5036566;28;20030;-71
2022/10/07 02:04:13;;;;;;;11.43;2.10;;;14.40;86.70;;;;;;5036112;28;20032;-71
2022/10/07 02:07:15;;;;;;;8.02;1.85;;;14.40;86.70;;;;;;5036410;28;20071;-71
2022/10/07 02:10:01;;;;;;;11.40;3.27;;;14.40;86.70;;;;;;5036177;28;20048;-71
2022/10/07 02:12:33;;;;;;;10.48;1.88;;;14.40;86.70;;;;;;5035764;28;20331;-71
2022/10/07 02:15:22;;;;;;;8.82;1.80;;;14.40;86.80;;;;;;5036119;28;20084;-70
2022/10/07 02:17:54;;;;;;;12.10;2.63;;;14.40;86.80;;;;;;5036320;28;20061;-70
2022/10/07 02:20:24;;;;;;;8.55;2.42;;;14.40;86.80;;;;;;5035637;28;20509;-70
2022/10/07 02:22:52;;;;;;;10.07;1.95;;;14.40;86.80;;;;;;5035612;28;20497;-70
2022/10/07 02:25:22;;;;;;;8.38;2.00;;;14.40;86.70;;;;;;5035963;28;20030;-70
2022/10/07 02:27:50;;;;;;;12.38;2.53;;;14.40;86.90;;;;;;5035649;28;20042;-70
2022/10/07 02:30:19;;;;;;;12.35;3.20;;;14.40;86.90;;;;;;5035653;28;20026;-70
2022/10/07 02:32:50;;;;;;;11.40;2.22;;;14.30;86.90;;;;;;5035722;28;20057;-70
2022/10/07 02:35:37;;;;;;;8.95;2.40;;;14.30;87.00;;;;;;5035468;28;20045;-71
2022/10/07 02:38:06;;;;;;;10.23;2.40;;;14.30;87.30;;;;;;5035913;28;20040;-70
2022/10/07 02:40:39;;;;;;;9.88;2.33;;;14.30;87.40;;;;;;5035647;28;20030;-71
2022/10/07 02:43:12;;;;;;;7.32;2.30;;;14.20;87.50;;;;;;5035838;28;20033;-70
2022/10/07 02:45:48;;;;;;;9.52;2.20;;;14.20;87.50;;;;;;5035334;28;20025;-71
2022/10/07 02:48:22;;;;;;;9.40;2.00;;;14.20;87.50;;;;;;5035201;28;20397;-71
2022/10/07 02:50:54;;;;;;;15.30;2.17;;;14.20;87.60;;;;;;5035556;28;20064;-70
2022/10/07 02:53:21;;;;;;;7.57;2.07;;;14.30;87.70;;;;;;5035347;28;20124;-71
2022/10/07 02:55:51;;;;;;;9.93;2.15;;;14.20;87.80;;;;;;5035045;28;20288;-70
2022/10/07 02:58:18;;;;;;;7.18;1.98;;;14.20;87.90;;;;;;5035095;28;20060;-70
2022/10/07 03:00:51;;;;;;;10.77;2.03;;;14.20;87.90;;;;;;5035016;28;20021;-70
2022/10/07 03:03:17;;;;;;;10.55;2.17;;;14.20;88.00;;;;;;5034754;28;20415;-70
2022/10/07 03:05:43;;;;;;;9.25;2.10;;;14.10;88.00;;;;;;5035202;28;20068;-70
2022/10/07 03:08:10;;;;;;;8.10;1.98;;;14.10;88.20;;;;;;5035064;28;20037;-70
2022/10/07 03:10:36;;;;;;;10.65;2.30;;;14.10;88.20;;;;;;5035048;28;20029;-70
2022/10/07 03:13:03;;;;;;;9.85;1.77;;;14.10;89.00;;;;;;5034968;28;20033;-70
2022/10/07 03:15:30;;;;;;;11.68;1.83;;;14.20;88.50;;;;;;5035062;28;20084;-71
2022/10/07 03:17:56;;;;;;;11.82;2.38;;;14.10;88.50;;;;;;5034842;28;20101;-71
2022/10/07 03:20:22;;;;;;;9.80;1.95;;;14.10;88.60;;;;;;5034993;28;20435;-71
2022/10/07 03:22:47;;;;;;;8.68;2.08;;;14.10;88.70;;;;;;5035054;28;20052;-71
2022/10/07 03:25:14;;;;;;;11.30;2.30;;;14.10;88.70;;;;;;5034641;28;20025;-70
2022/10/07 03:27:43;;;;;;;11.60;2.55;;;14.00;88.90;;;;;;5034397;28;20481;-70
2022/10/07 03:30:09;;;;;;;11.45;2.58;;;14.00;89.20;;;;;;5034884;28;20030;-71
2022/10/07 03:32:37;;;;;;;7.15;1.98;;;14.00;89.30;;;;;;5034379;28;20022;-70
2022/10/07 03:35:03;;;;;;;9.38;2.33;;;13.90;89.50;;;;;;5037533;28;20046;-70
2022/10/07 03:37:29;;;;;;;8.65;2.05;;;13.90;89.50;;;;;;5048449;28;20025;-70
2022/10/07 03:39:54;;;;;;;8.43;2.13;;;13.90;89.50;;;;;;5040288;28;20101;-71
2022/10/07 03:42:20;;;;;;;8.50;1.90;;;13.90;89.70;;;;;;5033832;28;20061;-71
2022/10/07 03:44:48;;;;;;;9.27;2.10;;;13.90;89.70;;;;;;5034494;28;20029;-72
2022/10/07 03:47:16;;;;;;;12.38;2.10;;;13.90;89.70;;;;;;5034440;28;20033;-72
2022/10/07 03:49:42;;;;;;;10.35;2.58;;;13.90;89.70;;;;;;5034203;28;20030;-72
2022/10/07 03:52:08;;;;;;;11.60;2.15;;;13.90;89.70;;;;;;5034046;28;20025;-71
2022/10/07 03:54:33;;;;;;;8.27;2.10;;;13.90;89.80;;;;;;5033982;28;20063;-72
2022/10/07 03:56:59;;;;;;;8.45;2.25;;;13.90;89.80;;;;;;5033998;28;20107;-71
2022/10/07 03:59:25;;;;;;;12.05;2.47;;;13.90;89.80;;;;;;5034196;28;20104;-71
2022/10/07 04:01:50;;;;;;;11.15;2.03;;;13.90;89.90;;;;;;5034121;28;20067;-71
2022/10/07 04:04:16;;;;;;;8.48;2.08;;;13.90;90.00;;;;;;5034041;28;20465;-72
2022/10/07 04:06:42;;;;;;;13.70;2.72;;;13.90;90.00;;;;;;5033821;28;20025;-72
2022/10/07 04:09:11;;;;;;;8.82;2.08;;;13.90;90.00;;;;;;5033862;28;20060;-72
2022/10/07 04:11:39;;;;;;;8.18;2.15;;;13.90;90.40;;;;;;5033779;28;20608;-72
2022/10/07 04:14:05;;;;;;;14.00;2.08;;;13.90;90.10;;;;;;5033984;28;20108;-72
2022/10/07 04:16:32;;;;;;;14.02;3.45;;;13.80;90.10;;;;;;5033965;28;20033;-72
2022/10/07 04:18:58;;;;;;;15.07;2.42;;;13.80;90.10;;;;;;5033408;28;20048;-71
2022/10/07 04:21:24;;;;;;;10.73;2.30;;;13.80;90.40;;;;;;5033615;28;20376;-71
2022/10/07 04:23:49;;;;;;;9.07;2.10;;;13.80;90.20;;;;;;5033829;28;20029;-72
2022/10/07 04:26:15;;;;;;;9.48;2.50;;;13.80;90.30;;;;;;5033655;28;20029;-72
2022/10/07 04:28:41;;;;;;;11.77;2.38;;;13.70;90.30;;;;;;5033861;28;20091;-72
2022/10/07 04:31:08;;;;;;;10.35;2.08;;;13.70;90.40;;;;;;5033696;28;20120;-72
2022/10/07 04:33:38;;;;;;;14.02;2.25;;;13.70;90.50;;;;;;5033165;28;20478;-72
2022/10/07 04:36:05;;;;;;;9.27;2.45;;;13.70;90.60;;;;;;5033652;28;20112;-71
2022/10/07 04:38:34;;;;;;;11.30;2.22;;;13.60;90.60;;;;;;5035630;28;20021;-72
2022/10/07 04:41:04;;;;;;;12.98;2.35;;;13.60;90.70;;;;;;5033680;28;20029;-72
2022/10/07 04:43:32;;;;;;;12.13;2.15;;;13.60;90.80;;;;;;5033410;28;20027;-72
2022/10/07 04:46:04;;;;;;;8.95;2.10;;;13.60;90.80;;;;;;5033652;28;20083;-72
2022/10/07 04:48:30;;;;;;;10.00;1.95;;;13.60;90.80;;;;;;5033090;28;20026;-72
2022/10/07 04:51:03;;;;;;;10.00;2.35;;;13.60;90.80;;;;;;5033395;28;20056;-72
2022/10/07 04:53:30;;;;;;;9.88;1.88;;;13.70;90.80;;;;;;5033212;28;20081;-71
2022/10/07 04:55:56;;;;;;;11.27;2.42;;;13.70;90.80;;;;;;5033142;28;20052;-71
2022/10/07 04:58:22;;;;;;;12.52;2.30;;;13.70;90.80;;;;;;5032944;28;20030;-71
2022/10/07 05:00:50;;;;;;;12.20;2.30;;;13.70;90.90;;;;;;5033237;28;20032;-72
2022/10/07 05:03:17;;;;;;;9.75;2.17;;;13.60;90.90;;;;;;5033127;28;20113;-72
2022/10/07 05:05:44;;;;;;;7.97;2.40;;;13.60;91.00;;;;;;5033043;28;20077;-72
2022/10/07 05:08:14;;;;;;;10.07;2.53;;;13.60;91.00;;;;;;5033127;28;20056;-71
2022/10/07 05:10:40;;;;;;;14.02;3.53;;;13.60;91.00;;;;;;5033039;28;20035;-72
2022/10/07 05:13:08;;;;;;;9.35;2.83;;;13.60;90.90;;;;;;5033395;28;20143;-72
2022/10/07 05:15:35;;;;;;;13.05;2.53;;;13.70;90.90;;;;;;5032875;28;20038;-72
2022/10/07 05:18:01;;;;;;;11.13;2.80;;;13.70;90.90;;;;;;5033040;28;20108;-72
2022/10/07 05:20:29;;;;;;;13.88;3.20;;;13.70;90.90;;;;;;5033281;28;20030;-71
2022/10/07 05:22:55;;;;;;;12.93;3.30;;;13.70;90.90;;;;;;5032901;28;20025;-73
2022/10/07 05:25:20;;;;;;;14.23;3.35;;;13.60;90.90;;;;;;5034772;28;20461;-75
2022/10/07 05:27:50;;;;;;;14.73;2.38;;;13.60;91.00;;;;;;5037044;28;20461;-74
2022/10/07 05:30:17;;;;;;;10.68;2.22;;;13.60;91.00;;;;;;5039218;28;20029;-71
2022/10/07 05:32:43;;;;;;;9.05;2.28;;;13.60;91.10;;;;;;5048983;28;20057;-73
2022/10/07 05:35:09;;;;;;;9.18;2.22;;;13.60;91.10;;;;;;5048582;28;20366;-70
2022/10/07 05:37:34;;;;;;;7.03;1.65;;;13.60;91.10;;;;;;5037089;28;20413;-71
2022/10/07 05:40:00;;;;;;;7.38;1.80;;;13.70;91.10;;;;;;5036850;28;20033;-71
2022/10/07 05:42:26;;;;;;;9.07;1.92;;;13.70;91.30;;;;;;5036406;28;20047;-71
2022/10/07 05:44:51;;;;;;;10.70;2.20;;;13.80;91.30;;;;;;5036235;28;20033;-72
2022/10/07 05:47:17;;;;;;;9.98;2.75;;;13.80;91.20;;;;;;5036876;28;20410;-72
2022/10/07 05:49:43;;;;;;;6.60;1.80;;;13.80;91.10;;;;;;5036674;28;20040;-72
2022/10/07 05:52:08;;;;;;;12.43;2.47;;;13.90;91.10;;;;;;5036143;28;20100;-71
2022/10/07 05:54:34;;;;;;;9.35;2.00;;;13.90;91.00;;;;;;5036668;28;20079;-71
2022/10/07 05:57:00;;;;;;;12.82;2.78;;;13.80;90.90;;;;;;5036307;28;20404;-71
2022/10/07 05:59:25;;;;;;;12.82;3.55;;;13.90;90.80;;;;;;5035862;28;20036;-71
2022/10/07 06:01:51;;;;;;;12.18;2.42;;;13.90;90.70;;;;;;5036622;28;20468;-70
2022/10/07 06:04:18;;;;;;;13.00;2.17;;;13.90;90.70;;;;;;5036339;28;20374;-69
2022/10/07 06:06:44;;;;;;;13.57;2.58;;;13.90;90.50;;;;;;5036372;28;20029;-69
2022/10/07 06:14:38;;;;;;;12.38;2.72;;;13.80;90.30;;;;;;5035768;28;20048;-69
2022/10/07 06:17:10;;;;;;;17.75;2.58;;;13.70;90.40;;;;;;5035905;28;20033;-69
2022/10/07 06:19:36;;;;;;;15.00;2.83;;;13.60;90.50;;;;;;5035837;28;20029;-69
2022/10/07 06:22:02;;;;;;;7.10;1.77;;;13.50;91.00;;;;;;5035515;28;20469;-69
2022/10/07 06:24:28;;;;;;;11.82;2.75;;;13.40;90.90;;;;;;5035497;28;20079;-69
2022/10/07 06:26:54;;;;;;;11.45;2.10;;;13.30;90.90;;;;;;5035036;28;20049;-68
2022/10/07 06:29:22;;;;;;;13.35;2.58;;;13.30;91.00;;;;;;5044168;28;20116;-70
2022/10/07 06:31:48;;;;;;;12.20;2.25;;;13.30;91.10;;;;;;5044418;28;20029;-70
2022/10/07 06:34:14;;;;;;;10.25;2.05;;;13.30;91.20;;;;;;5041113;28;20385;-71
2022/10/07 06:36:39;;;;;;;13.60;2.20;;;13.30;91.30;;;;;;5045243;28;20393;-70
2022/10/07 06:39:05;;;;;;;11.80;2.00;;;13.30;91.40;;;;;;5035140;28;20056;-70
2022/10/07 06:41:30;;;;;;;12.15;2.22;;;13.20;91.40;;;;;;5049086;28;20025;-71
2022/10/07 06:43:56;;;;;;;14.10;2.60;;;13.20;91.50;;;;;;5041698;28;20032;-70
2022/10/07 06:46:22;;;;;;;12.00;2.58;;;13.30;91.60;;;;;;5037246;28;20033;-70
2022/10/07 06:48:47;;;;;;;13.88;2.30;;;13.30;91.60;;;;;;5043006;28;20052;-69
2022/10/07 06:51:16;;;;;;;10.73;2.13;;;13.30;91.70;;;;;;5048987;28;20048;-69
2022/10/07 06:53:42;;;;;;;12.35;2.60;;;13.40;91.70;;;;;;5040354;28;20041;-70
2022/10/07 06:56:09;;;;;;;13.45;3.05;;;13.40;91.80;;;;;;5035202;28;20040;-73
2022/10/07 06:58:35;;;;;;;15.10;3.33;;;13.40;91.90;;;;;;5036920;28;20637;-74
2022/10/07 07:01:00;;;;;;;11.10;2.25;;;13.30;91.90;;;;;;5044060;28;20124;-72
2022/10/07 07:03:27;;;;;;;15.43;2.30;;;13.30;92.00;;;;;;5034974;28;20026;-72
2022/10/07 07:05:53;;;;;;;10.07;2.55;;;13.30;92.00;;;;;;5035110;28;20037;-72
2022/10/07 07:08:22;;;;;;;13.38;2.72;;;13.40;92.10;;;;;;5035028;28;20033;-72
2022/10/07 07:10:48;;;;;;;14.50;2.15;;;13.50;92.10;;;;;;5035090;28;20109;-72
2022/10/07 07:13:14;;;;;;;10.15;2.25;;;13.50;92.10;;;;;;5034867;28;20493;-72
2022/10/07 07:15:40;;;;;;;13.63;2.28;;;13.70;92.10;;;;;;5035082;28;20033;-72
2022/10/07 07:18:08;;;;;;;13.73;2.65;;;13.70;91.90;;;;;;5034703;28;20476;-72
2022/10/07 07:20:37;;;;;;;13.82;2.75;;;13.90;91.90;;;;;;5034664;28;20432;-72
2022/10/07 07:23:06;;;;;;;17.38;2.97;;;13.90;91.90;;;;;;5034993;28;20022;-71
2022/10/07 07:25:36;;;;;;;14.35;2.90;;;13.90;91.60;;;;;;5034972;28;20071;-71
2022/10/07 07:28:02;;;;;;;12.57;2.78;;;14.00;91.70;;;;;;5034436;28;20064;-71
2022/10/07 07:30:28;;;;;;;15.10;2.67;;;14.00;91.70;;;;;;5034384;28;20018;-73
2022/10/07 07:32:54;;;;;;;12.77;2.80;;;14.00;91.60;;;;;;5034470;28;20033;-71
2022/10/07 07:35:21;;;;;;;15.60;3.50;;;14.00;91.60;;;;;;5034099;28;20053;-72
2022/10/07 07:37:46;;;;;;;15.23;3.00;;;14.00;91.60;;;;;;5034709;28;20096;-72
2022/10/07 07:40:12;;;;;;;11.05;2.42;;;14.00;91.70;;;;;;5034374;28;20029;-72
2022/10/07 07:42:37;;;;;;;12.93;2.97;;;14.10;91.70;;;;;;5034426;28;20022;-72
2022/10/07 07:45:04;;;;;;;13.82;2.80;;;14.10;91.70;;;;;;5033896;28;20083;-72
2022/10/07 07:47:33;;;;;;;15.57;3.35;;;14.10;91.90;;;;;;5034071;28;20032;-72
2022/10/07 07:49:58;;;;;;;14.85;3.33;;;14.10;91.90;;;;;;5034121;28;20029;-72
2022/10/07 07:52:24;;;;;;;10.60;3.45;;;14.10;91.80;;;;;;5034364;28;20420;-72
2022/10/07 07:54:51;;;;;;;14.57;3.67;;;14.20;91.80;;;;;;5033884;28;20034;-72
2022/10/07 07:57:17;;;;;;;17.25;4.07;;;14.20;91.70;;;;;;5034187;28;20076;-72
2022/10/07 07:59:42;;;;;;;19.83;5.07;;;14.20;91.60;;;;;;5034269;28;20021;-72
2022/10/07 08:02:11;;;;;;;21.35;4.65;;;14.20;91.50;;;;;;5033977;28;20028;-72
2022/10/07 08:04:36;;;;;;;16.67;4.40;;;14.30;91.50;;;;;;5033606;28;20087;-74
2022/10/07 08:07:02;;;;;;;15.00;3.90;;;14.30;91.60;;;;;;5041577;28;20029;-72
2022/10/07 08:09:27;;;;;;;15.60;4.15;;;14.40;91.70;;;;;;5033424;28;20416;-71
2022/10/07 08:11:53;;;;;;;15.05;4.15;;;14.40;91.50;;;;;;5033740;28;20022;-72
2022/10/07 08:14:18;;;;;;;13.35;3.42;;;14.40;91.50;;;;;;5033810;28;20040;-72
2022/10/07 08:16:44;;;;;;;22.13;4.13;;;14.40;91.60;;;;;;5033712;28;20025;-71
2022/10/07 08:19:11;;;;;;;18.45;3.72;;;14.40;91.30;;;;;;5033666;28;20037;-72
2022/10/07 08:21:37;;;;;;;17.40;3.35;;;14.30;91.40;;;;;;5033864;28;20029;-71
2022/10/07 08:24:05;;;;;;;17.15;3.22;;;14.30;91.50;;;;;;5033698;28;20029;-72
2022/10/07 08:26:32;;;;;;;15.68;3.65;;;14.20;91.60;;;;;;5033539;28;20037;-72
2022/10/07 08:28:59;;;;;;;10.90;2.83;;;14.20;91.60;;;;;;5033838;28;20104;-71
2022/10/07 08:31:28;;;;;;;15.90;2.95;;;14.20;91.90;;;;;;5033625;28;20071;-70
2022/10/07 08:33:56;;;;;;;11.23;2.50;;;14.30;91.60;;;;;;5033609;28;20033;-72
2022/10/07 08:36:24;;;;;;;15.18;2.60;;;14.30;91.60;;;;;;5033324;28;20033;-71
2022/10/07 08:38:49;;;;;;;16.15;2.85;;;14.40;91.70;;;;;;5033551;28;20091;-72
2022/10/07 08:41:33;;;;;;;13.32;2.20;;;14.40;91.70;;;;;;5033415;28;20029;-72
2022/10/07 08:44:25;;;;;;;14.73;2.72;;;14.50;91.70;;;;;;5033234;28;20056;-72
2022/10/07 08:47:05;;;;;;;18.30;2.80;;;14.60;91.60;;;;;;5033679;28;20033;-72
2022/10/07 08:49:55;;;;;;;12.30;2.38;;;14.80;91.60;;;;;;5033224;28;20051;-72
2022/10/07 08:52:35;;;;;;;12.57;2.63;;;14.80;91.50;;;;;;5033014;28;20017;-70
2022/10/07 08:55:03;;;;;;;20.55;3.20;;;15.00;91.50;;;;;;5032939;28;20033;-71
2022/10/07 08:57:43;;;;;;;12.63;2.40;;;15.10;91.30;;;;;;5034360;28;20029;-71
2022/10/07 09:00:12;;;;;;;14.75;2.53;;;15.20;91.20;;;;;;5032598;28;20041;-72
2022/10/07 09:02:53;;;;;;;12.70;2.50;;;15.40;91.20;;;;;;5033003;28;20021;-72
2022/10/07 09:05:25;;;;;;;16.17;2.50;;;15.50;90.90;;;;;;5033130;28;20112;-72
2022/10/07 09:07:59;;;;;;;11.85;2.17;;;15.60;91.00;;;;;;5032570;28;20022;-72
2022/10/07 09:10:34;;;;;;;12.05;2.00;;;15.80;90.80;;;;;;5032402;28;20489;-72
2022/10/07 09:13:17;;;;;;;17.80;2.10;;;15.90;90.50;;;;;;5033632;28;20028;-72
2022/10/07 09:15:57;;;;;;;9.32;1.88;;;16.10;90.60;;;;;;5013243;28;20037;-73
2022/10/07 09:18:38;;;;;;;14.55;2.08;;;16.20;90.00;;;;;;5012962;28;20022;-74
2022/10/07 09:21:16;;;;;;;10.40;2.15;;;16.20;89.80;;;;;;5012876;28;20097;-74
2022/10/07 09:23:42;;;;;;;10.25;1.95;;;16.40;90.00;;;;;;5013369;28;20045;-73
2022/10/07 09:26:13;;;;;;;12.77;1.90;;;16.40;89.80;;;;;;5013237;28;20109;-71
2022/10/07 09:28:39;;;;;;;15.18;1.90;;;16.40;89.70;;;;;;5043251;28;20044;-70
2022/10/07 09:31:06;;;;;;;8.07;1.75;;;16.40;89.20;;;;;;5032677;28;20021;-72
2022/10/07 09:33:38;;;;;;;11.88;2.03;;;16.30;89.20;;;;;;5033003;28;20029;-72
2022/10/07 09:36:07;;;;;;;10.57;1.95;;;16.20;89.70;;;;;;5039275;28;20044;-73
2022/10/07 09:38:38;;;;;;;11.93;1.70;;;16.10;89.90;;;;;;5042283;28;20033;-71
2022/10/07 09:41:31;;;;;;;14.68;2.78;;;16.10;89.90;;;;;;5036514;28;20115;-70
2022/10/07 09:44:14;;;;;;;15.13;2.07;;;16.00;90.00;;;;;;5042084;28;20087;-71
2022/10/07 09:46:45;;;;;;;9.93;1.58;;;16.00;90.40;;;;;;5038774;28;20033;-70
2022/10/07 09:49:42;;;;;;;11.57;1.65;;;15.90;90.40;;;;;;5043363;28;20032;-71
2022/10/07 09:52:22;;;;;;;12.20;1.83;;;15.90;90.50;;;;;;5028879;28;20029;-71
2022/10/07 09:54:54;;;;;;;13.20;1.70;;;16.00;90.60;;;;;;5046439;28;20120;-71
2022/10/07 09:57:34;;;;;;;13.65;2.22;;;16.00;90.60;;;;;;5033618;28;20412;-73
2022/10/07 10:00:11;;;;;;;9.02;1.63;;;16.00;90.50;;;;;;5035483;28;20025;-72
2022/10/07 10:02:39;;;;;;;18.30;2.25;;;16.00;90.60;;;;;;5048707;28;20033;-71
2022/10/07 10:05:17;;;;;;;11.23;1.70;;;16.00;90.60;;;;;;5047034;28;20029;-72
2022/10/07 10:07:46;;;;;;;11.45;1.65;;;16.10;90.60;;;;;;5033142;28;20112;-72
2022/10/07 10:10:23;;;;;;;16.52;2.08;;;16.10;90.50;;;;;;5033922;28;20025;-71
2022/10/07 10:12:51;;;;;;;9.93;1.75;;;16.10;90.50;;;;;;5036970;28;20115;-72
2022/10/07 10:15:41;;;;;;;13.02;1.77;;;16.10;90.50;;;;;;5043270;28;20036;-70
2022/10/07 10:18:22;;;;;;;11.40;2.15;;;16.10;90.40;;;;;;5042168;28;20033;-72
2022/10/07 10:20:48;;;;;;;12.77;1.77;;;16.10;90.40;;;;;;5035835;28;20048;-72
2022/10/07 10:23:32;;;;;;;12.40;2.10;;;16.20;90.50;;;;;;5035785;28;20453;-71
2022/10/07 10:26:25;;;;;;;10.65;1.80;;;16.20;90.20;;;;;;5035292;28;20455;-71
2022/10/07 10:29:18;;;;;;;14.15;1.88;;;16.20;90.00;;;;;;5034968;28;20523;-72
2022/10/07 10:32:12;;;;;;;11.48;1.52;;;16.30;90.20;;;;;;5035810;28;20025;-71
2022/10/07 10:35:08;;;;;;;14.27;2.58;;;16.30;90.00;;;;;;5035749;28;20084;-73
2022/10/07 10:37:40;;;;;;;8.38;1.23;;;16.40;90.10;;;;;;5035660;28;20393;-71
2022/10/07 10:40:36;;;;;;;11.63;1.33;;;16.40;89.50;;;;;;5035605;28;20036;-72
2022/10/07 10:43:23;;;;;;;10.98;1.90;;;16.40;89.10;;;;;;5035062;28;20038;-71
2022/10/07 10:46:09;;;;;;;11.90;1.58;;;16.40;88.10;;;;;;5037357;28;20029;-72
2022/10/07 10:48:52;;;;;;;13.32;1.67;;;16.40;88.00;;;;;;5040784;28;20538;-72
2022/10/07 10:51:52;;;;;;;42.03;3.00;;;16.50;88.70;;;;;;5036627;28;20025;-72
2022/10/07 10:54:27;;;;;;;12.95;1.70;;;16.60;88.70;;;;;;5047113;28;20073;-71
2022/10/07 10:57:37;;;;;;;9.02;1.35;;;16.70;89.40;;;;;;5049161;28;20144;-70
2022/10/07 11:00:16;;;;;;;12.40;1.50;;;16.80;88.50;;;;;;5012378;28;20088;-71
2022/10/07 11:03:18;;;;;;;12.95;1.33;;;16.90;88.70;;;;;;5044032;28;20102;-71
2022/10/07 11:05:46;;;;;;;11.27;1.58;;;17.20;87.80;;;;;;5034636;28;20094;-71
2022/10/07 11:08:20;;;;;;;21.45;1.63;;;17.30;86.00;;;;;;5034754;28;20033;-71
2022/10/07 11:10:56;;;;;;;9.82;1.35;;;17.50;85.70;;;;;;5035833;28;20079;-70
2022/10/07 11:13:46;;;;;;;5.95;0.90;;;17.60;85.60;;;;;;5051265;28;20029;-71
2022/10/07 11:16:30;;;;;;;10.00;1.48;;;17.90;84.10;;;;;;5040196;28;20091;-71
2022/10/07 11:19:19;;;;;;;9.50;1.48;;;18.00;83.40;;;;;;5051103;28;20025;-72
2022/10/07 11:21:50;;;;;;;12.98;1.70;;;18.10;83.30;;;;;;5052024;28;20028;-72
2022/10/07 11:24:39;;;;;;;6.88;1.10;;;18.20;81.00;;;;;;5036729;28;20095;-71
2022/10/07 11:27:28;;;;;;;11.82;1.80;;;18.20;80.80;;;;;;5038163;28;20041;-71
2022/10/07 11:30:05;;;;;;;8.40;1.08;;;18.30;80.60;;;;;;5034074;28;20056;-71
2022/10/07 11:32:53;;;;;;;8.13;1.73;;;18.30;80.90;;;;;;5044843;28;20032;-72
2022/10/07 11:35:25;;;;;;;6.03;1.30;;;18.50;81.40;;;;;;5034309;28;20039;-72
2022/10/07 11:37:59;;;;;;;8.18;1.40;;;18.60;80.80;;;;;;5033492;28;20555;-76
2022/10/07 11:40:30;;;;;;;15.15;1.60;;;18.60;79.40;;;;;;5052200;28;20501;-77
2022/10/07 11:43:04;;;;;;;10.70;1.50;;;18.60;79.50;;;;;;5034093;28;20029;-76
2022/10/07 11:45:39;;;;;;;7.07;1.63;;;18.70;79.20;;;;;;5036920;28;20418;-76
2022/10/07 11:48:13;;;;;;;9.32;1.40;;;18.70;78.80;;;;;;5045344;28;20039;-77
2022/10/07 11:50:54;;;;;;;5.82;1.00;;;18.80;78.10;;;;;;5050975;28;20028;-81
2022/10/07 11:53:27;;;;;;;6.55;0.95;;;18.90;77.50;;;;;;5042957;28;20029;-82
2022/10/07 11:56:03;;;;;;;8.82;1.20;;;18.90;77.40;;;;;;5033751;28;20500;-77
2022/10/07 11:58:37;;;;;;;7.55;0.95;;;18.90;77.40;;;;;;5040461;28;20427;-71
2022/10/07 12:01:27;;;;;;;8.52;1.20;;;19.00;77.90;;;;;;5033922;28;20039;-72
2022/10/07 12:04:23;;;;;;;7.15;1.10;;;19.00;77.40;;;;;;5034282;28;20044;-73
2022/10/07 12:07:27;;;;;;;10.73;1.45;;;19.10;77.50;;;;;;5036102;28;20052;-71
2022/10/07 12:10:20;;;;;;;9.63;1.35;;;19.20;77.30;;;;;;5035295;28;20029;-72
2022/10/07 12:12:52;;;;;;;11.45;1.20;;;19.30;77.70;;;;;;5033671;28;20544;-73
2022/10/07 12:15:30;;;;;;;6.60;1.27;;;19.40;77.80;;;;;;5033880;28;20047;-72
2022/10/07 12:18:05;;;;;;;9.95;1.02;;;19.60;76.90;;;;;;5033895;28;20628;-72
2022/10/07 12:20:33;;;;;;;10.85;1.50;;;19.60;75.60;;;;;;5033523;28;20029;-72
2022/10/07 12:23:24;;;;;;;6.13;1.15;;;19.60;75.40;;;;;;5033968;28;20373;-72
2022/10/07 12:25:58;;;;;;;8.35;0.88;;;19.70;75.60;;;;;;5033706;28;20037;-73
2022/10/07 12:28:33;;;;;;;10.13;1.38;;;19.70;74.70;;;;;;5033443;28;20057;-72
2022/10/07 12:31:05;;;;;;;12.60;1.15;;;19.80;74.40;;;;;;5033512;28;20496;-72
2022/10/07 12:33:57;;;;;;;8.15;1.08;;;19.80;74.10;;;;;;5033132;28;20500;-73
2022/10/07 12:36:25;;;;;;;7.87;1.17;;;19.90;74.10;;;;;;5044231;28;20051;-73
2022/10/07 12:41:35;;;;;;;7.85;0.85;;;20.00;73.60;;;;;;5033443;28;20029;-72
2022/10/07 12:44:07;;;;;;;8.20;1.35;;;20.00;73.70;;;;;;5033455;28;20362;-72
2022/10/07 12:46:41;;;;;;;5.73;0.80;;;20.00;74.40;;;;;;5033591;28;20435;-73
2022/10/07 12:49:42;;;;;;;7.57;1.25;;;20.10;75.00;;;;;;5033457;28;20048;-73
2022/10/07 12:52:32;;;;;;;6.90;0.90;;;20.20;73.70;;;;;;5034056;28;20118;-73
2022/10/07 12:55:00;;;;;;;8.55;0.95;;;20.30;72.20;;;;;;5032879;28;20061;-72
2022/10/07 12:57:51;;;;;;;11.38;1.85;;;20.20;72.00;;;;;;5033082;28;20075;-74
2022/10/07 13:00:19;;;;;;;6.95;1.10;;;20.20;72.00;;;;;;5033472;28;20421;-73
2022/10/07 13:03:22;;;;;;;5.95;1.05;;;20.30;72.30;;;;;;5034207;28;20388;-72
2022/10/07 13:06:18;;;;;;;10.80;1.38;;;20.40;71.50;;;;;;5033244;28;20525;-73
2022/10/07 13:09:02;;;;;;;10.00;1.10;;;20.40;70.40;;;;;;5032635;28;20037;-72
2022/10/07 13:11:46;;;;;;;7.95;0.80;;;20.40;69.80;;;;;;5040890;28;20056;-75
2022/10/07 13:14:18;;;;;;;7.20;1.08;;;20.50;69.50;;;;;;5043572;28;20029;-86
2022/10/07 13:16:46;;;;;;;6.43;0.82;;;20.40;68.10;;;;;;5040576;28;20559;-86